createdAt,value
2018-03-21T00:02:03.981Z,57.67
2018-03-21T00:04:31.577Z,64.17
2018-03-21T00:07:00.128Z,59.27
2018-03-21T00:09:27.725Z,57.23
2018-03-21T00:11:55.569Z,64.43
2018-03-21T00:14:24.200Z,60.87
2018-03-21T00:16:52.084Z,58.63
2018-03-21T00:19:19.662Z,60.60
2018-03-21T00:21:47.275Z,51.97
2018-03-21T00:24:15.104Z,49.83
2018-03-21T00:26:43.526Z,47.67
2018-03-21T00:29:11.429Z,46.37
2018-03-21T00:31:39.770Z,51.40
2018-03-21T00:34:07.383Z,57.47
2018-03-21T00:36:36.089Z,61.30
2018-03-21T00:39:03.700Z,47.00
2018-03-21T00:41:31.571Z,40.23
2018-03-21T00:43:59.167Z,43.90
2018-03-21T00:46:26.855Z,53.80
2018-03-21T00:48:54.598Z,40.77
2018-03-21T00:51:22.395Z,42.73
2018-03-21T00:53:49.960Z,43.03
2018-03-21T00:56:17.944Z,36.33
2018-03-21T00:58:45.650Z,38.37
2018-03-21T01:01:13.209Z,45.63
2018-03-21T01:03:41.132Z,49.13
2018-03-21T01:06:09.041Z,41.97
2018-03-21T01:08:36.619Z,43.80
2018-03-21T01:11:04.214Z,41.77
2018-03-21T01:13:33.670Z,42.97
2018-03-21T01:16:01.231Z,40.30
2018-03-21T01:18:28.786Z,40.33
2018-03-21T01:20:56.533Z,39.57
2018-03-21T01:23:24.266Z,40.80
2018-03-21T01:25:52.077Z,44.17
2018-03-21T01:28:19.988Z,40.67
2018-03-21T01:30:48.050Z,39.17
2018-03-21T01:33:15.602Z,43.00
2018-03-21T01:35:43.376Z,39.73
2018-03-21T01:38:11.218Z,37.47
2018-03-21T01:40:38.782Z,37.23
2018-03-21T01:43:06.589Z,37.73
2018-03-21T01:45:34.915Z,36.53
2018-03-21T01:48:02.661Z,37.57
2018-03-21T01:50:30.546Z,32.77
2018-03-21T01:53:10.050Z,45.63
2018-03-21T01:55:37.940Z,37.47
2018-03-21T01:58:05.582Z,35.03
2018-03-21T02:00:33.294Z,37.13
2018-03-21T02:03:01.272Z,42.57
2018-03-21T02:05:29.598Z,43.20
2018-03-21T02:07:57.471Z,42.73
2018-03-21T02:10:25.223Z,43.53
2018-03-21T02:12:52.996Z,44.67
2018-03-21T02:15:20.896Z,52.40
2018-03-21T02:17:48.544Z,46.57
2018-03-21T02:20:16.098Z,47.57
2018-03-21T02:22:43.881Z,45.43
2018-03-21T02:25:11.739Z,41.03
2018-03-21T02:27:39.289Z,39.77
2018-03-21T02:30:06.853Z,57.90
2018-03-21T02:32:34.782Z,54.13
2018-03-21T02:35:02.538Z,49.57
2018-03-21T02:37:30.106Z,65.10
2018-03-21T02:39:57.905Z,52.60
2018-03-21T02:42:25.613Z,48.77
2018-03-21T02:44:53.637Z,48.20
2018-03-21T02:47:21.502Z,34.30
2018-03-21T02:49:49.570Z,38.23
2018-03-21T02:52:17.153Z,36.90
2018-03-21T02:54:45.089Z,43.73
2018-03-21T02:57:12.909Z,41.70
2018-03-21T02:59:40.458Z,42.17
2018-03-21T03:02:08.118Z,40.60
2018-03-21T03:04:36.709Z,41.03
2018-03-21T03:07:04.490Z,40.47
2018-03-21T03:09:32.171Z,31.67
2018-03-21T03:11:59.754Z,40.80
2018-03-21T03:14:27.303Z,44.87
2018-03-21T03:16:55.069Z,37.43
2018-03-21T03:19:22.679Z,47.57
2018-03-21T03:21:50.226Z,29.50
2018-03-21T03:24:18.761Z,47.13
2018-03-21T03:26:46.375Z,43.63
2018-03-21T03:29:14.398Z,42.63
2018-03-21T03:31:42.214Z,42.00
2018-03-21T03:34:09.761Z,40.03
2018-03-21T03:36:37.333Z,40.90
2018-03-21T03:39:05.082Z,41.40
2018-03-21T03:41:32.702Z,93.30
2018-03-21T03:44:00.250Z,47.27
2018-03-21T03:46:28.017Z,44.03
2018-03-21T03:48:55.689Z,42.63
2018-03-21T03:51:23.702Z,42.73
2018-03-21T03:53:51.900Z,42.80
2018-03-21T03:56:19.462Z,40.87
2018-03-21T03:58:47.012Z,45.30
2018-03-21T04:01:14.635Z,56.80
2018-03-21T04:03:42.965Z,48.03
2018-03-21T04:06:10.523Z,44.90
2018-03-21T04:08:38.136Z,46.47
2018-03-21T04:11:05.684Z,43.60
2018-03-21T04:13:34.079Z,43.23
2018-03-21T04:16:01.674Z,41.93
2018-03-21T04:18:29.217Z,43.93
2018-03-21T04:20:56.779Z,47.27
2018-03-21T04:23:24.606Z,48.70
2018-03-21T04:25:52.998Z,52.57
2018-03-21T04:28:20.566Z,54.67
2018-03-21T04:30:48.375Z,48.30
2018-03-21T04:33:15.921Z,51.83
2018-03-21T04:35:43.660Z,55.47
2018-03-21T04:38:11.350Z,53.57
2018-03-21T04:40:39.185Z,54.13
2018-03-21T04:43:06.909Z,53.63
2018-03-21T04:45:35.553Z,54.90
2018-03-21T04:48:03.111Z,48.67
2018-03-21T04:50:30.705Z,46.63
2018-03-21T04:52:59.399Z,47.00
2018-03-21T04:55:27.822Z,52.30
2018-03-21T04:57:55.385Z,64.00
2018-03-21T05:00:23.209Z,57.07
2018-03-21T05:02:50.770Z,59.43
2018-03-21T05:05:18.333Z,73.20
2018-03-21T05:07:45.914Z,72.93
2018-03-21T05:10:13.462Z,98.90
2018-03-21T05:12:41.069Z,106.17
2018-03-21T05:15:08.681Z,101.07
2018-03-21T05:17:36.234Z,92.43
2018-03-21T05:20:03.811Z,80.40
2018-03-21T05:22:31.417Z,71.30
2018-03-21T05:24:59.013Z,78.40
2018-03-21T05:27:27.306Z,70.23
2018-03-21T05:29:54.890Z,73.27
2018-03-21T05:32:22.442Z,75.97
2018-03-21T05:34:50.003Z,88.70
2018-03-21T05:37:17.683Z,86.40
2018-03-21T05:39:45.547Z,81.63
2018-03-21T05:42:13.104Z,69.07
2018-03-21T05:44:40.716Z,69.40
2018-03-21T05:47:08.263Z,65.67
2018-03-21T05:49:35.814Z,70.97
2018-03-21T05:52:03.487Z,82.20
2018-03-21T05:54:31.460Z,107.43
2018-03-21T05:56:59.577Z,109.67
2018-03-21T05:59:27.437Z,149.43
2018-03-21T06:01:54.997Z,123.37
2018-03-21T06:04:24.152Z,186.87
2018-03-21T06:06:51.848Z,168.33
2018-03-21T06:09:19.707Z,168.90
2018-03-21T06:11:47.513Z,157.73
2018-03-21T06:14:15.143Z,162.97
2018-03-21T06:16:42.708Z,161.20
2018-03-21T06:19:10.394Z,169.43
2018-03-21T06:21:38.218Z,184.00
2018-03-21T06:24:05.848Z,181.90
2018-03-21T06:26:33.481Z,171.83
2018-03-21T06:29:01.190Z,164.07
2018-03-21T06:31:29.009Z,151.20
2018-03-21T06:33:56.561Z,159.33
2018-03-21T06:36:24.391Z,155.70
2018-03-21T06:38:52.269Z,143.77
2018-03-21T06:41:19.825Z,151.43
2018-03-21T06:43:47.438Z,144.37
2018-03-21T06:46:15.236Z,146.93
2018-03-21T06:48:43.064Z,147.13
2018-03-21T06:51:10.793Z,138.10
2018-03-21T06:53:39.120Z,159.77
2018-03-21T06:56:06.868Z,161.77
2018-03-21T06:58:34.775Z,169.23
2018-03-21T07:01:02.583Z,163.13
2018-03-21T07:03:30.462Z,192.73
2018-03-21T07:05:58.166Z,162.27
2018-03-21T07:08:25.750Z,149.37
2018-03-21T07:10:53.479Z,169.10
2018-03-21T07:13:21.100Z,156.93
2018-03-21T07:16:00.508Z,161.40
2018-03-21T07:18:29.150Z,171.63
2018-03-21T07:20:56.990Z,148.77
2018-03-21T07:23:24.550Z,146.43
2018-03-21T07:25:52.154Z,131.67
2018-03-21T07:28:20.529Z,94.40
2018-03-21T07:30:48.084Z,81.20
2018-03-21T07:33:15.876Z,55.97
2018-03-21T07:35:43.494Z,49.07
2018-03-21T07:38:11.201Z,49.37
2018-03-21T07:40:38.964Z,48.57
2018-03-21T07:43:06.534Z,54.03
2018-03-21T07:45:34.085Z,53.87
2018-03-21T07:48:01.898Z,52.70
2018-03-21T07:50:29.450Z,62.95
2018-03-21T07:52:57.225Z,40.93
2018-03-21T07:55:24.817Z,32.77
2018-03-21T07:57:52.509Z,29.03
2018-03-21T08:00:20.209Z,28.50
2018-03-21T08:02:47.793Z,23.97
2018-03-21T08:05:15.354Z,25.37
2018-03-21T08:07:43.344Z,24.90
2018-03-21T08:10:11.052Z,75.37
2018-03-21T08:12:38.602Z,51.13
2018-03-21T08:15:06.154Z,29.80
2018-03-21T08:17:33.850Z,26.45
2018-03-21T08:20:02.172Z,23.23
2018-03-21T08:22:29.722Z,21.37
2018-03-21T08:24:57.322Z,25.57
2018-03-21T08:27:25.053Z,29.27
2018-03-21T08:29:52.618Z,47.80
2018-03-21T08:32:20.258Z,31.93
2018-03-21T08:34:47.819Z,33.07
2018-03-21T08:37:15.478Z,53.17
2018-03-21T08:39:43.082Z,66.47
2018-03-21T08:42:10.638Z,36.80
2018-03-21T08:44:38.191Z,26.43
2018-03-21T08:47:05.790Z,28.67
2018-03-21T08:49:34.107Z,23.63
2018-03-21T08:52:01.693Z,35.90
2018-03-21T08:54:30.235Z,30.63
2018-03-21T08:56:57.790Z,24.87
2018-03-21T08:59:25.446Z,33.93
2018-03-21T09:01:53.049Z,49.40
2018-03-21T09:04:20.602Z,179.33
2018-03-21T09:06:48.219Z,95.47
2018-03-21T09:09:15.986Z,20.53
2018-03-21T09:11:43.583Z,21.40
2018-03-21T09:14:11.149Z,39.83
2018-03-21T09:16:38.740Z,52.80
2018-03-21T09:19:07.054Z,35.40
2018-03-21T09:21:34.607Z,29.90
2018-03-21T09:24:02.198Z,44.73
2018-03-21T09:26:29.810Z,16.27
2018-03-21T09:31:48.523Z,27.30
2018-03-21T09:34:16.306Z,70.23
2018-03-21T09:36:43.857Z,23.50
2018-03-21T09:39:11.457Z,24.47
2018-03-21T09:41:39.449Z,24.47
2018-03-21T09:44:07.011Z,17.27
2018-03-21T09:46:34.779Z,19.50
2018-03-21T09:49:02.669Z,20.57
2018-03-21T09:51:30.215Z,25.27
2018-03-21T09:53:57.922Z,23.70
2018-03-21T09:56:25.638Z,17.87
2018-03-21T09:58:53.337Z,25.27
2018-03-21T10:01:21.747Z,12.73
2018-03-21T10:03:49.475Z,23.40
2018-03-21T10:06:17.864Z,16.93
2018-03-21T10:08:45.738Z,25.43
2018-03-21T10:11:13.327Z,18.30
2018-03-21T10:13:40.929Z,14.97
2018-03-21T10:16:08.559Z,36.43
2018-03-21T10:18:36.105Z,25.60
2018-03-21T10:21:03.664Z,40.73
2018-03-21T10:23:31.379Z,25.90
2018-03-21T10:25:58.978Z,17.70
2018-03-21T10:28:26.618Z,14.87
2018-03-21T10:30:54.202Z,25.27
2018-03-21T10:33:21.787Z,35.90
2018-03-21T10:35:49.458Z,21.57
2018-03-21T10:38:17.808Z,31.97
2018-03-21T10:40:45.354Z,5.13
2018-03-21T10:43:12.922Z,13.80
2018-03-21T10:45:40.563Z,16.67
2018-03-21T10:48:08.330Z,19.73
2018-03-21T10:50:36.186Z,7.70
2018-03-21T10:53:03.802Z,10.30
2018-03-21T10:55:31.362Z,19.93
2018-03-21T10:57:59.699Z,20.07
2018-03-21T11:00:27.481Z,9.93
2018-03-21T11:03:08.016Z,10.07
2018-03-21T11:05:35.610Z,7.80
2018-03-21T11:08:03.298Z,9.53
2018-03-21T11:10:30.847Z,7.63
2018-03-21T11:12:59.251Z,9.23
2018-03-21T11:15:27.156Z,9.60
2018-03-21T11:17:54.702Z,8.30
2018-03-21T11:20:22.315Z,9.90
2018-03-21T11:22:50.903Z,7.03
2018-03-21T11:25:18.446Z,5.23
2018-03-21T11:27:46.306Z,22.83
2018-03-21T11:30:14.635Z,17.77
2018-03-21T11:32:42.183Z,10.53
2018-03-21T11:35:09.856Z,12.40
2018-03-21T11:37:37.495Z,25.67
2018-03-21T11:40:05.058Z,4.43
2018-03-21T11:42:32.631Z,5.30
2018-03-21T11:45:00.522Z,6.00
2018-03-21T11:47:28.042Z,5.90
2018-03-21T11:49:55.989Z,5.57
2018-03-21T11:52:23.629Z,4.03
2018-03-21T11:54:51.317Z,22.63
2018-03-21T11:57:19.079Z,14.23
2018-03-21T11:59:46.699Z,37.10
2018-03-21T12:02:15.178Z,19.40
2018-03-21T12:04:42.788Z,18.70
2018-03-21T12:07:10.357Z,53.23
2018-03-21T12:09:37.913Z,14.17
2018-03-21T12:12:05.502Z,13.03
2018-03-21T12:14:33.062Z,13.97
2018-03-21T12:17:00.615Z,13.13
2018-03-21T12:19:28.467Z,7.67
2018-03-21T12:21:56.021Z,11.70
2018-03-21T12:24:23.580Z,18.27
2018-03-21T12:26:51.170Z,68.17
2018-03-21T12:29:18.730Z,11.33
2018-03-21T12:31:46.275Z,13.87
2018-03-21T12:34:13.851Z,8.27
2018-03-21T12:36:41.748Z,7.33
2018-03-21T12:39:09.343Z,8.23
2018-03-21T12:41:36.993Z,10.80
2018-03-21T12:44:04.565Z,9.53
2018-03-21T12:46:32.259Z,5.87
2018-03-21T12:49:00.610Z,18.53
2018-03-21T12:51:28.191Z,133.13
2018-03-21T12:53:55.809Z,60.27
2018-03-21T12:56:23.660Z,42.37
2018-03-21T12:58:51.339Z,15.70
2018-03-21T13:01:18.882Z,7.83
2018-03-21T13:03:46.461Z,32.20
2018-03-21T13:06:14.002Z,4.70
2018-03-21T13:08:41.777Z,4.83
2018-03-21T13:11:09.363Z,5.60
2018-03-21T13:13:36.953Z,5.03
2018-03-21T13:16:05.268Z,32.37
2018-03-21T13:18:33.086Z,24.20
2018-03-21T13:21:01.721Z,15.53
2018-03-21T13:23:29.354Z,10.10
2018-03-21T13:25:57.209Z,9.40
2018-03-21T13:28:25.149Z,10.70
2018-03-21T13:30:52.745Z,8.53
2018-03-21T13:33:20.450Z,7.17
2018-03-21T13:35:47.991Z,3.90
2018-03-21T13:38:15.597Z,12.70
2018-03-21T13:40:43.214Z,5.47
2018-03-21T13:43:10.768Z,8.40
2018-03-21T13:45:38.330Z,6.10
2018-03-21T13:48:06.907Z,11.90
2018-03-21T13:50:34.501Z,12.30
2018-03-21T13:53:02.335Z,6.77
2018-03-21T13:55:30.095Z,10.20
2018-03-21T13:57:57.651Z,9.87
2018-03-21T14:00:25.518Z,6.07
2018-03-21T14:02:53.132Z,10.03
2018-03-21T14:05:20.723Z,22.27
2018-03-21T14:07:48.548Z,193.67
2018-03-21T14:10:16.939Z,80.10
2018-03-21T14:12:44.660Z,30.93
2018-03-21T14:15:12.330Z,39.03
2018-03-21T14:17:40.043Z,26.00
2018-03-21T14:20:07.806Z,49.10
2018-03-21T14:22:35.525Z,46.63
2018-03-21T14:25:03.122Z,13.97
2018-03-21T14:27:30.691Z,21.07
2018-03-21T14:29:58.258Z,25.20
2018-03-21T14:32:25.862Z,16.57
2018-03-21T14:34:53.410Z,25.17
2018-03-21T14:37:21.452Z,19.90
2018-03-21T14:39:49.042Z,18.13
2018-03-21T14:42:16.749Z,17.37
2018-03-21T14:44:44.308Z,14.23
2018-03-21T14:47:12.024Z,23.57
2018-03-21T14:49:39.590Z,22.03
2018-03-21T14:52:08.499Z,24.50
2018-03-21T14:54:36.965Z,31.43
2018-03-21T14:57:05.386Z,36.07
2018-03-21T14:59:32.967Z,26.60
2018-03-21T15:02:00.551Z,61.20
2018-03-21T15:04:28.131Z,11.03
2018-03-21T15:06:55.694Z,33.60
2018-03-21T15:09:23.324Z,28.63
2018-03-21T15:11:51.159Z,32.73
2018-03-21T15:14:18.726Z,18.87
2018-03-21T15:16:46.355Z,21.07
2018-03-21T15:19:14.277Z,11.30
2018-03-21T15:21:41.807Z,18.80
2018-03-21T15:24:09.692Z,18.00
2018-03-21T15:26:37.289Z,43.03
2018-03-21T15:29:05.046Z,37.83
2018-03-21T15:31:32.950Z,36.50
2018-03-21T15:34:00.767Z,47.03
2018-03-21T15:36:29.090Z,18.70
2018-03-21T15:38:57.095Z,27.10
2018-03-21T15:41:24.704Z,31.43
2018-03-21T15:43:52.336Z,40.20
2018-03-21T15:46:19.918Z,53.63
2018-03-21T15:48:47.646Z,39.90
2018-03-21T15:51:15.219Z,37.63
2018-03-21T15:53:43.889Z,10.53
2018-03-21T15:56:11.459Z,24.63
2018-03-21T15:58:39.411Z,53.27
2018-03-21T16:01:07.322Z,27.57
2018-03-21T16:03:35.144Z,28.10
2018-03-21T16:06:02.715Z,15.60
2018-03-21T16:08:30.456Z,20.07
2018-03-21T16:10:58.011Z,8.67
2018-03-21T16:13:25.581Z,8.70
2018-03-21T16:15:53.278Z,12.63
2018-03-21T16:18:21.067Z,13.53
2018-03-21T16:20:48.832Z,11.97
2018-03-21T16:23:16.442Z,12.73
2018-03-21T16:25:44.797Z,56.10
2018-03-21T16:28:14.162Z,30.13
2018-03-21T16:30:42.033Z,20.17
2018-03-21T16:33:09.729Z,60.40
2018-03-21T16:35:37.295Z,19.27
2018-03-21T16:38:04.914Z,21.17
2018-03-21T16:40:32.971Z,59.57
2018-03-21T16:43:00.739Z,112.27
2018-03-21T16:45:28.371Z,72.33
2018-03-21T16:47:55.946Z,41.33
2018-03-21T16:50:23.533Z,20.40
2018-03-21T16:52:51.222Z,18.03
2018-03-21T16:55:19.560Z,13.57
2018-03-21T16:57:47.112Z,10.97
2018-03-21T17:00:15.037Z,12.17
2018-03-21T17:02:43.464Z,15.63
2018-03-21T17:05:11.044Z,16.47
2018-03-21T17:07:38.688Z,18.83
2018-03-21T17:10:06.265Z,20.50
2018-03-21T17:12:34.619Z,28.77
2018-03-21T17:15:02.426Z,26.63
2018-03-21T17:17:30.872Z,26.03
2018-03-21T17:19:58.432Z,17.03
2018-03-21T17:22:26.029Z,14.53
2018-03-21T17:24:54.402Z,14.17
2018-03-21T17:27:22.838Z,21.57
2018-03-21T17:29:51.000Z,45.67
2018-03-21T17:32:18.573Z,77.47
2018-03-21T17:34:46.318Z,84.87
2018-03-21T17:37:13.920Z,82.17
2018-03-21T17:39:42.262Z,78.83
2018-03-21T17:42:09.825Z,75.13
2018-03-21T17:44:37.791Z,73.87
2018-03-21T17:47:05.450Z,82.07
2018-03-21T17:49:33.020Z,79.27
2018-03-21T17:52:00.680Z,68.57
2018-03-21T17:54:28.281Z,73.37
2018-03-21T17:56:56.607Z,69.93
2018-03-21T17:59:24.573Z,66.83
2018-03-21T18:01:52.243Z,63.27
2018-03-21T18:04:19.998Z,58.80
2018-03-21T18:06:47.916Z,52.23
2018-03-21T18:09:15.485Z,47.80
2018-03-21T18:11:43.826Z,58.40
2018-03-21T18:14:11.477Z,62.30
2018-03-21T18:16:39.057Z,81.03
2018-03-21T18:19:07.393Z,108.70
2018-03-21T18:21:35.007Z,78.40
2018-03-21T18:24:04.051Z,78.40
2018-03-21T18:26:32.776Z,73.40
2018-03-21T18:29:00.546Z,66.17
2018-03-21T18:31:28.171Z,70.10
2018-03-21T18:33:56.333Z,66.73
2018-03-21T18:36:23.960Z,78.03
2018-03-21T18:38:51.526Z,68.80
2018-03-21T18:41:19.312Z,77.50
2018-03-21T18:43:47.176Z,70.40
2018-03-21T18:46:14.764Z,80.23
2018-03-21T18:48:42.403Z,86.93
2018-03-21T18:51:10.206Z,80.60
2018-03-21T18:53:38.723Z,73.83
2018-03-21T18:56:06.287Z,86.60
2018-03-21T18:58:34.173Z,53.57
2018-03-21T19:01:01.733Z,73.50
2018-03-21T19:03:29.497Z,45.63
2018-03-21T19:05:58.274Z,60.13
2018-03-21T19:08:26.027Z,87.03
2018-03-21T19:10:53.983Z,84.23
2018-03-21T19:13:21.969Z,79.80
2018-03-21T19:15:49.753Z,75.40
2018-03-21T19:18:17.748Z,93.90
2018-03-21T19:20:46.892Z,84.87
2018-03-21T19:23:14.700Z,79.70
2018-03-21T19:25:42.730Z,68.40
2018-03-21T19:28:10.488Z,72.97
2018-03-21T19:30:38.258Z,82.93
2018-03-21T19:33:05.832Z,95.40
2018-03-21T19:35:33.538Z,87.93
2018-03-21T19:38:01.742Z,77.70
2018-03-21T19:40:29.314Z,75.93
2018-03-21T19:42:57.148Z,67.17
2018-03-21T19:45:24.835Z,73.70
2018-03-21T19:47:52.432Z,79.73
2018-03-21T19:50:20.564Z,76.63
2018-03-21T19:52:48.177Z,61.80
2018-03-21T19:55:15.790Z,64.67
2018-03-21T19:57:43.923Z,63.50
2018-03-21T20:00:12.554Z,83.33
2018-03-21T20:02:40.679Z,70.67
2018-03-21T20:05:08.868Z,75.70
2018-03-21T20:07:36.649Z,60.80
2018-03-21T20:10:04.269Z,53.73
2018-03-21T20:12:32.379Z,62.20
2018-03-21T20:15:00.039Z,64.53
2018-03-21T20:17:27.611Z,54.50
2018-03-21T20:19:55.398Z,54.10
2018-03-21T20:22:23.979Z,53.50
2018-03-21T20:24:51.617Z,43.70
2018-03-21T20:27:19.412Z,45.77
2018-03-21T20:29:47.234Z,57.83
2018-03-21T20:32:15.301Z,50.87
2018-03-21T20:34:43.087Z,55.13
2018-03-21T20:37:10.655Z,65.17
2018-03-21T20:39:38.314Z,68.73
2018-03-21T20:42:06.187Z,49.23
2018-03-21T20:44:33.763Z,59.17
2018-03-21T20:47:01.345Z,59.23
2018-03-21T20:49:29.184Z,55.90
2018-03-21T20:51:57.510Z,58.17
2018-03-21T20:54:25.094Z,61.93
2018-03-21T20:56:52.804Z,73.83
2018-03-21T20:59:20.599Z,66.77
2018-03-21T21:01:48.161Z,75.83
2018-03-21T21:04:15.789Z,66.60
2018-03-21T21:06:44.435Z,61.17
2018-03-21T21:09:12.819Z,47.77
2018-03-21T21:11:40.744Z,54.63
2018-03-21T21:14:08.526Z,51.33
2018-03-21T21:16:36.160Z,57.20
2018-03-21T21:19:03.794Z,52.50
2018-03-21T21:21:32.133Z,61.40
2018-03-21T21:23:59.694Z,57.20
2018-03-21T21:26:27.292Z,57.73
2018-03-21T21:28:54.860Z,60.77
2018-03-21T21:31:22.450Z,56.63
2018-03-21T21:33:50.074Z,55.07
2018-03-21T21:36:17.634Z,61.13
2018-03-21T21:38:45.307Z,59.27
2018-03-21T21:41:12.911Z,54.07
2018-03-21T21:43:40.982Z,64.90
2018-03-21T21:46:08.551Z,82.00
2018-03-21T21:48:36.157Z,77.90
2018-03-21T21:51:03.923Z,80.10
2018-03-21T21:53:31.490Z,82.93
2018-03-21T21:55:59.119Z,83.30
2018-03-21T21:58:26.679Z,80.77
2018-03-21T22:00:54.252Z,75.73
2018-03-21T22:03:22.078Z,68.37
2018-03-21T22:05:50.442Z,66.47
2018-03-21T22:08:18.193Z,75.97
2018-03-21T22:10:45.826Z,69.63
2018-03-21T22:13:14.402Z,65.97
2018-03-21T22:15:42.345Z,62.67
2018-03-21T22:18:10.239Z,65.20
2018-03-21T22:20:37.816Z,63.97
2018-03-21T22:23:05.546Z,58.77
2018-03-21T22:25:33.307Z,67.97
2018-03-21T22:28:00.869Z,62.13
2018-03-21T22:30:28.415Z,62.73
2018-03-21T22:32:56.225Z,56.77
2018-03-21T22:35:23.831Z,68.53
2018-03-21T22:37:51.384Z,68.23
2018-03-21T22:40:19.895Z,84.30
2018-03-21T22:42:47.480Z,62.57
2018-03-21T22:45:15.245Z,43.30
2018-03-21T22:47:43.071Z,43.77
2018-03-21T22:50:10.770Z,46.70
2018-03-21T22:52:38.326Z,52.97
2018-03-21T22:55:05.920Z,51.73
2018-03-21T22:57:33.471Z,54.53
2018-03-21T23:00:01.029Z,49.30
2018-03-21T23:02:29.378Z,49.27
2018-03-21T23:04:56.962Z,39.30
2018-03-21T23:07:26.112Z,43.20
2018-03-21T23:09:53.867Z,54.97
2018-03-21T23:12:21.434Z,48.00
2018-03-21T23:14:49.279Z,47.63
2018-03-21T23:17:16.883Z,46.20
2018-03-21T23:19:44.609Z,46.63
2018-03-21T23:22:12.184Z,44.93
2018-03-21T23:24:39.805Z,42.43
2018-03-21T23:27:08.386Z,36.33
2018-03-21T23:29:36.698Z,36.73
2018-03-21T23:32:04.429Z,36.83
2018-03-21T23:34:32.750Z,38.10
2018-03-21T23:37:00.293Z,38.53
2018-03-21T23:39:28.022Z,44.00
2018-03-21T23:41:56.342Z,43.30
2018-03-21T23:44:23.891Z,48.10
2018-03-21T23:46:51.757Z,40.30
2018-03-21T23:49:19.665Z,34.50
2018-03-21T23:51:47.282Z,35.03
2018-03-21T23:54:14.914Z,35.47
2018-03-21T23:56:42.466Z,35.87
2018-03-21T23:59:11.057Z,39.67
